WXM80 ListenWXM80 Stop

You find our weather info also at:

UK Metoffice

WeatherCloud

Weather Underground

Northeastern Weather Network

AWEKAS

Citizen Weather Observer Program (CWOP)

HAMweather, WeatherForYou, PWS Weather


Weather Underground History page Text

Daily Summary for February 25, 2017 Units:  Metric    English   Both
« Previous Day
Next Day »
Daily Weekly Monthly Yearly Custom
  High: Low: Average:
Temperature: 19.2 °C 6.4 °C 13.7 °C
Dew Point: 15.4 °C 4.6 °C 12.2 °C
Humidity: 98 % 77 % 91 %
Wind Speed: 19.2 km/h 0.5 km/h 7.1 km/h
Wind Gust: 35.2 km/h - -
Wind:- - SSW
Pressure: 1010 hPa 996.8 hPa -
Precipitation: 0 mm    
Historical Graphs
 
 
Tabular Data for February 25, 2017
Time Temperature Dew Point Pressure Wind Wind Speed Wind Gust Humidity Rainfall Rate (Hourly)
00:04 13.5 °C 12.7 °C 1010 hPa SW 5.1 km/h 14.8 km/h 95 % 0 mm
00:09 13.4 °C 12.7 °C 1010 hPa South 3.9 km/h 11.1 km/h 95 % 0 mm
00:14 13.4 °C 12.6 °C 1010 hPa South 3.5 km/h 11.1 km/h 95 % 0 mm
00:19 13.3 °C 12.6 °C 1010 hPa South 4.8 km/h 9.3 km/h 95 % 0 mm
00:24 13.3 °C 12.5 °C 1009.7 hPa SSW 6 km/h 11.1 km/h 95 % 0 mm
00:29 13.2 °C 12.4 °C 1009.7 hPa SSW 5.3 km/h 13 km/h 95 % 0 mm
00:34 13.2 °C 12.4 °C 1009.7 hPa SW 5.6 km/h 13 km/h 95 % 0 mm
00:39 13.2 °C 12.4 °C 1009.7 hPa South 3.7 km/h 9.3 km/h 95 % 0 mm
00:44 13.1 °C 12.3 °C 1009.7 hPa South 4.5 km/h 9.3 km/h 95 % 0 mm
00:49 13.1 °C 12.3 °C 1009.7 hPa South 5 km/h 11.1 km/h 95 % 0 mm
00:55 13.1 °C 12.3 °C 1009.7 hPa South 6.6 km/h 9.3 km/h 95 % 0 mm
01:00 13.1 °C 12.3 °C 1009.7 hPa South 5 km/h 7.4 km/h 95 % 0 mm
01:05 13.1 °C 12.3 °C 1009.7 hPa SSW 6 km/h 9.7 km/h 95 % 0 mm
01:10 13.1 °C 12.4 °C 1009.7 hPa SSW 3.4 km/h 11.1 km/h 96 % 0 mm
01:15 13.1 °C 12.4 °C 1009.7 hPa SSW 3.2 km/h 9.3 km/h 96 % 0 mm
01:20 13.1 °C 12.5 °C 1009.7 hPa SSW 1.9 km/h 5.6 km/h 96 % 0 mm
01:25 13.1 °C 12.5 °C 1009.7 hPa SSW 2.6 km/h 7.4 km/h 96 % 0 mm
01:30 13.1 °C 12.5 °C 1009.7 hPa South 4.5 km/h 5.6 km/h 96 % 0 mm
01:35 13.1 °C 12.5 °C 1009.7 hPa SW 4.8 km/h 11.1 km/h 96 % 0 mm
01:40 13.1 °C 12.4 °C 1009.4 hPa SSW 7.6 km/h 13 km/h 96 % 0 mm
01:45 13.1 °C 12.4 °C 1009.4 hPa SSW 5.6 km/h 11.1 km/h 96 % 0 mm
01:50 13.1 °C 12.4 °C 1009.4 hPa South 8.7 km/h 11.3 km/h 96 % 0 mm
01:55 13.1 °C 12.5 °C 1009.4 hPa South 5.6 km/h 11.1 km/h 96 % 0 mm
02:00 13.1 °C 12.5 °C 1009.4 hPa South 4.7 km/h 12.9 km/h 96 % 0 mm
02:05 13.1 °C 12.5 °C 1009.4 hPa South 4.7 km/h 9.3 km/h 96 % 0 mm
02:10 13.2 °C 12.6 °C 1009.4 hPa South 3.4 km/h 7.4 km/h 96 % 0 mm
02:15 13.2 °C 12.6 °C 1009 hPa South 5.1 km/h 7.4 km/h 96 % 0 mm
02:20 13.2 °C 12.6 °C 1009 hPa South 4.2 km/h 7.4 km/h 96 % 0 mm
02:25 13.2 °C 12.6 °C 1009 hPa SSW 3.2 km/h 7.4 km/h 96 % 0 mm
02:30 13.1 °C 12.5 °C 1009 hPa South 3.2 km/h 5.6 km/h 96 % 0 mm
02:35 13.1 °C 12.5 °C 1009 hPa SSW 1.9 km/h 5.6 km/h 96 % 0 mm
02:40 13.1 °C 12.4 °C 1009 hPa South 3.7 km/h 5.6 km/h 96 % 0 mm
02:45 13.1 °C 12.4 °C 1009 hPa SSE 6.8 km/h 13 km/h 96 % 0 mm
02:50 13.1 °C 12.4 °C 1009 hPa SSW 6.1 km/h 9.3 km/h 96 % 0 mm
02:56 13.1 °C 12.5 °C 1009 hPa South 5 km/h 13 km/h 96 % 0 mm
03:01 13.2 °C 12.6 °C 1009 hPa SSW 4.8 km/h 14.8 km/h 96 % 0 mm
03:06 13.2 °C 12.6 °C 1009 hPa South 3.4 km/h 9.3 km/h 96 % 0 mm
03:11 13.3 °C 12.7 °C 1009 hPa South 4.3 km/h 6.4 km/h 96 % 0 mm
03:16 13.3 °C 12.7 °C 1009 hPa SSW 5.3 km/h 14.5 km/h 96 % 0 mm
03:21 13.3 °C 12.7 °C 1009 hPa South 4.7 km/h 7.4 km/h 96 % 0 mm
03:26 13.3 °C 12.7 °C 1009 hPa South 2.3 km/h 5.6 km/h 96 % 0 mm
03:31 13.3 °C 12.7 °C 1009 hPa SSW 4.8 km/h 14.8 km/h 96 % 0 mm
03:36 13.2 °C 12.6 °C 1009 hPa South 2.7 km/h 9.3 km/h 96 % 0 mm
03:41 13.2 °C 12.6 °C 1008.7 hPa South 5.5 km/h 13 km/h 96 % 0 mm
03:46 13.2 °C 12.6 °C 1008.7 hPa SSW 9 km/h 13 km/h 96 % 0 mm
03:51 13.1 °C 12.5 °C 1008.7 hPa SSW 6 km/h 11.1 km/h 96 % 0 mm
03:56 13.1 °C 12.5 °C 1008.4 hPa South 8.4 km/h 11.1 km/h 96 % 0 mm
04:01 13.1 °C 12.4 °C 1008.4 hPa South 7.4 km/h 9.3 km/h 96 % 0 mm
04:06 13 °C 12.4 °C 1008.4 hPa SSW 8.2 km/h 13 km/h 96 % 0 mm
04:11 13 °C 12.4 °C 1008.4 hPa South 7.6 km/h 13 km/h 96 % 0 mm
04:16 13 °C 12.4 °C 1008.4 hPa South 6.4 km/h 9.3 km/h 96 % 0 mm
04:21 13.1 °C 12.4 °C 1008.4 hPa SSW 7.6 km/h 11.1 km/h 96 % 0 mm
04:26 13.1 °C 12.7 °C 1008.4 hPa SSW 8.7 km/h 14.8 km/h 97 % 0 mm
04:31 13.2 °C 12.7 °C 1008 hPa South 7.7 km/h 13 km/h 97 % 0 mm
04:36 13.1 °C 12.7 °C 1008 hPa SSW 7.4 km/h 11.1 km/h 97 % 0 mm
04:42 13.1 °C 12.6 °C 1008 hPa SSE 7.7 km/h 9.3 km/h 97 % 0 mm
04:47 13 °C 12.4 °C 1008 hPa South 3.9 km/h 9.3 km/h 96 % 0 mm
04:52 12.9 °C 12.3 °C 1008 hPa SW 7.7 km/h 11.1 km/h 96 % 0 mm
04:57 12.9 °C 12.3 °C 1008 hPa SSW 4.5 km/h 7.4 km/h 96 % 0 mm
05:02 12.9 °C 12.4 °C 1008 hPa SSW 3.9 km/h 7.4 km/h 97 % 0 mm
05:07 12.8 °C 12.4 °C 1008 hPa SSW 5.6 km/h 7.4 km/h 97 % 0 mm
05:12 12.8 °C 12.4 °C 1008 hPa SSW 1.8 km/h 5.6 km/h 97 % 0 mm
05:17 12.8 °C 12.3 °C 1008 hPa South 2.6 km/h 5.6 km/h 97 % 0 mm
05:22 12.7 °C 12.3 °C 1008 hPa South 4.8 km/h 7.4 km/h 97 % 0 mm
05:27 12.7 °C 12.1 °C 1008 hPa SSW 5.5 km/h 11.1 km/h 96 % 0 mm
05:32 12.6 °C 11.9 °C 1007.7 hPa South 3.7 km/h 9.3 km/h 96 % 0 mm
05:37 12.5 °C 11.9 °C 1007.7 hPa SSW 5 km/h 11.1 km/h 96 % 0 mm
05:42 12.5 °C 11.9 °C 1007.7 hPa South 2.3 km/h 9.3 km/h 96 % 0 mm
05:47 12.4 °C 11.8 °C 1007.7 hPa SSE 9 km/h 16.7 km/h 96 % 0 mm
05:52 12.3 °C 11.7 °C 1007.7 hPa SE 6 km/h 13 km/h 96 % 0 mm
05:57 12.3 °C 11.7 °C 1007.7 hPa South 4.5 km/h 13 km/h 96 % 0 mm
06:02 12.2 °C 11.6 °C 1007.7 hPa South 6 km/h 11.1 km/h 96 % 0 mm
06:07 12.2 °C 11.6 °C 1007.7 hPa South 5.6 km/h 11.1 km/h 96 % 0 mm
06:12 12.1 °C 11.5 °C 1007.7 hPa South 9.2 km/h 13 km/h 96 % 0 mm
06:17 12 °C 11.4 °C 1007.7 hPa South 4.8 km/h 8 km/h 96 % 0 mm
06:22 11.9 °C 11.3 °C 1007.7 hPa South 3.1 km/h 13 km/h 96 % 0 mm
06:27 11.9 °C 11.3 °C 1007.7 hPa SSE 2.7 km/h 5.6 km/h 96 % 0 mm
06:33 11.8 °C 11.2 °C 1007.7 hPa South 5 km/h 7.4 km/h 96 % 0 mm
06:38 11.8 °C 11.4 °C 1007.7 hPa SSW 7.4 km/h 13 km/h 97 % 0 mm
06:43 11.8 °C 11.3 °C 1007.7 hPa SSE 5 km/h 16.7 km/h 97 % 0 mm
06:48 11.7 °C 11.2 °C 1007.3 hPa South 6.9 km/h 11.1 km/h 97 % 0 mm
06:53 11.7 °C 11.2 °C 1007.3 hPa South 10 km/h 16.7 km/h 97 % 0 mm
06:58 11.7 °C 11.3 °C 1007.3 hPa South 10.5 km/h 16.7 km/h 97 % 0 mm
07:03 11.8 °C 11.3 °C 1007.3 hPa SSW 6.3 km/h 9.7 km/h 97 % 0 mm
07:08 11.8 °C 11.4 °C 1007.3 hPa SSW 6 km/h 9.7 km/h 97 % 0 mm
07:13 11.8 °C 11.4 °C 1007.3 hPa South 6 km/h 14.8 km/h 97 % 0 mm
07:18 11.8 °C 11.4 °C 1007.3 hPa South 8 km/h 16.1 km/h 97 % 0 mm
07:23 11.8 °C 11.4 °C 1007.7 hPa South 3.2 km/h 12.9 km/h 97 % 0 mm
07:28 11.8 °C 11.4 °C 1007.7 hPa South 8 km/h 12.9 km/h 97 % 0 mm
07:33 11.8 °C 11.4 °C 1007.7 hPa South 4.8 km/h 14.5 km/h 97 % 0 mm
07:38 11.8 °C 11.4 °C 1007.7 hPa South 3.2 km/h 11.3 km/h 97 % 0 mm
07:43 11.9 °C 11.4 °C 1007.7 hPa South 4.8 km/h 11.3 km/h 97 % 0 mm
07:48 11.9 °C 11.5 °C 1007.7 hPa South 3.2 km/h 19.3 km/h 97 % 0 mm
07:53 12 °C 11.6 °C 1007.3 hPa South 4.8 km/h 12.9 km/h 97 % 0 mm
07:58 12.1 °C 11.7 °C 1007.3 hPa SSE 4.5 km/h 9.3 km/h 97 % 0 mm
08:03 12.2 °C 11.8 °C 1007.3 hPa SSE 3.2 km/h 20.9 km/h 97 % 0 mm
08:09 12.4 °C 12.1 °C 1007.3 hPa SSE 3.7 km/h 7.4 km/h 98 % 0 mm
08:14 12.6 °C 12.2 °C 1007 hPa SSE 4 km/h 11.3 km/h 98 % 0 mm
08:19 12.7 °C 12.3 °C 1007 hPa SSE 5.3 km/h 5.6 km/h 98 % 0 mm
08:24 12.8 °C 12.5 °C 1007 hPa South 0.5 km/h 5.6 km/h 98 % 0 mm
08:29 13 °C 12.7 °C 1007 hPa South 2.7 km/h 11.1 km/h 98 % 0 mm
08:34 13.1 °C 12.7 °C 1007 hPa SSW 3.4 km/h 8 km/h 98 % 0 mm
08:39 13.1 °C 12.7 °C 1007 hPa SSW 3.2 km/h 5.6 km/h 98 % 0 mm
08:44 13.2 °C 12.8 °C 1007 hPa South 6 km/h 6 km/h 98 % 0 mm
08:45 13.2 °C 12.8 °C 1007 hPa South 2.9 km/h 13 km/h 98 % 0 mm
08:50 13.2 °C 12.9 °C 1006.7 hPa SSE 1.8 km/h 7.4 km/h 98 % 0 mm
08:55 13.4 °C 13.1 °C 1006.7 hPa SSE 5.3 km/h 8 km/h 98 % 0 mm
09:00 13.7 °C 13.4 °C 1006.7 hPa South 3.4 km/h 12.9 km/h 98 % 0 mm
09:05 13.9 °C 13.6 °C 1006.7 hPa South 7.4 km/h 14.5 km/h 98 % 0 mm
09:10 14.2 °C 13.9 °C 1006.7 hPa SSE 6.3 km/h 11.3 km/h 98 % 0 mm
09:15 14.4 °C 14.1 °C 1006.7 hPa SSE 5.3 km/h 14.5 km/h 98 % 0 mm
09:20 14.7 °C 14.4 °C 1006.7 hPa SE 2.3 km/h 5.6 km/h 98 % 0 mm
09:25 15.1 °C 14.7 °C 1006.7 hPa SE 3.2 km/h 7.4 km/h 98 % 0 mm
09:30 15.3 °C 14.8 °C 1006.7 hPa SE 1.9 km/h 7.4 km/h 97 % 0 mm
09:35 15.4 °C 14.8 °C 1006.3 hPa SSW 7.7 km/h 14.5 km/h 96 % 0 mm
09:38 15.6 °C 14.9 °C 1006.7 hPa SSW 6 km/h 9.3 km/h 96 % 0 mm
09:43 15.9 °C 15.1 °C 1006.3 hPa SSE 3.2 km/h 7.4 km/h 95 % 0 mm
09:48 16.3 °C 15.3 °C 1006.3 hPa SE 3.4 km/h 9.3 km/h 94 % 0 mm
09:54 16.5 °C 15.2 °C 1006.3 hPa SSE 9 km/h 18.5 km/h 92 % 0 mm
09:59 16.7 °C 15 °C 1006.3 hPa South 4.3 km/h 7.4 km/h 90 % 0 mm
10:04 16.9 °C 14.9 °C 1006 hPa SE 8.9 km/h 16.7 km/h 88 % 0 mm
10:09 17 °C 15 °C 1006 hPa SE 8 km/h 16.7 km/h 88 % 0 mm
10:14 17 °C 14.8 °C 1006 hPa South 4.7 km/h 7.4 km/h 87 % 0 mm
10:19 17.1 °C 14.9 °C 1005.6 hPa SSE 5.3 km/h 8 km/h 87 % 0 mm
10:24 17.2 °C 14.8 °C 1005.6 hPa SE 6.4 km/h 14.8 km/h 86 % 0 mm
10:29 17.2 °C 14.8 °C 1005.6 hPa SE 12.4 km/h 22.2 km/h 86 % 0 mm
10:34 17.2 °C 14.8 °C 1005.6 hPa SSW 7.4 km/h 18.5 km/h 86 % 0 mm
10:39 17.3 °C 14.4 °C 1005.6 hPa ENE 3.5 km/h 7.4 km/h 83 % 0 mm
10:44 17.2 °C 14.5 °C 1005.3 hPa SSE 14.3 km/h 27.4 km/h 84 % 0 mm
10:49 16.9 °C 14.6 °C 1005.3 hPa South 9.5 km/h 16.1 km/h 86 % 0 mm
10:54 17 °C 14.8 °C 1005.3 hPa SE 11.4 km/h 22.2 km/h 87 % 0 mm
10:59 17 °C 14.7 °C 1005.3 hPa South 12.1 km/h 18.5 km/h 86 % 0 mm
11:04 17.1 °C 14.7 °C 1005 hPa SE 5.8 km/h 13 km/h 86 % 0 mm
11:09 17.3 °C 14.7 °C 1005 hPa South 9.2 km/h 22.2 km/h 85 % 0 mm
11:14 17.3 °C 14.8 °C 1005 hPa SSW 10.9 km/h 18.5 km/h 85 % 0 mm
11:19 17.6 °C 15.1 °C 1004.6 hPa SSE 7.1 km/h 14.8 km/h 85 % 0 mm
11:24 17.8 °C 14.8 °C 1004.6 hPa SSE 12.1 km/h 22.2 km/h 83 % 0 mm
11:29 17.7 °C 14.6 °C 1004.6 hPa SSE 17.5 km/h 24.1 km/h 82 % 0 mm
11:34 17.7 °C 14.7 °C 1004.6 hPa SE 6.3 km/h 18.5 km/h 83 % 0 mm
11:39 17.9 °C 14.8 °C 1004.6 hPa ESE 11.1 km/h 22.2 km/h 82 % 0 mm
11:45 18.2 °C 15.1 °C 1004.6 hPa SSE 9 km/h 13 km/h 82 % 0 mm
11:50 18.6 °C 15.4 °C 1004.6 hPa South 8.9 km/h 18.5 km/h 82 % 0 mm
11:55 18.6 °C 15.1 °C 1004.6 hPa South 7.2 km/h 18.5 km/h 80 % 0 mm
12:00 18.6 °C 15.1 °C 1004.3 hPa South 9 km/h 18.5 km/h 80 % 0 mm
12:05 18.5 °C 15 °C 1003.9 hPa SSW 10.1 km/h 14.5 km/h 80 % 0 mm
12:10 18.4 °C 14.9 °C 1003.9 hPa South 11.7 km/h 22.2 km/h 80 % 0 mm
12:15 18.3 °C 14.8 °C 1003.9 hPa South 11.9 km/h 17.7 km/h 80 % 0 mm
12:20 18.2 °C 14.9 °C 1003.6 hPa South 8.7 km/h 22.2 km/h 81 % 0 mm
12:25 18.2 °C 14.8 °C 1003.9 hPa SSE 15.6 km/h 17.7 km/h 81 % 0 mm
12:30 18.2 °C 14.8 °C 1003.6 hPa SSE 12.6 km/h 22.2 km/h 81 % 0 mm
12:35 18.3 °C 14.9 °C 1003.6 hPa South 12.6 km/h 17.7 km/h 81 % 0 mm
12:40 18.3 °C 14.8 °C 1003.6 hPa South 6.8 km/h 22.2 km/h 80 % 0 mm
12:45 18.3 °C 14.6 °C 1003.3 hPa SSW 6.6 km/h 22.2 km/h 79 % 0 mm
12:50 18.3 °C 14.6 °C 1003.3 hPa South 18.3 km/h 22.5 km/h 79 % 0 mm
12:55 18.4 °C 14.7 °C 1002.9 hPa SSE 12.6 km/h 18.5 km/h 79 % 0 mm
13:00 18.4 °C 14.6 °C 1002.9 hPa SSE 17.1 km/h 29.6 km/h 78 % 0 mm
13:05 18.5 °C 14.8 °C 1002.6 hPa SSE 10.1 km/h 14.8 km/h 79 % 0 mm
13:10 18.8 °C 14.9 °C 1002.6 hPa South 9.8 km/h 16.7 km/h 78 % 0 mm
13:15 18.9 °C 14.8 °C 1002.3 hPa SSE 10.3 km/h 18.5 km/h 77 % 0 mm
13:20 19 °C 15.1 °C 1002.3 hPa SE 13.5 km/h 25.7 km/h 78 % 0 mm
13:25 19.1 °C 14.9 °C 1001.9 hPa SSE 11.4 km/h 17.7 km/h 77 % 0 mm
13:30 18.7 °C 14.6 °C 1001.9 hPa South 17.2 km/h 35.2 km/h 77 % 0 mm
13:36 18.4 °C 14.7 °C 1001.6 hPa SSE 6.8 km/h 24.1 km/h 79 % 0 mm
13:41 18.5 °C 14.8 °C 1001.6 hPa ESE 12.2 km/h 19.3 km/h 79 % 0 mm
13:42 18.6 °C 14.8 °C 1001.6 hPa SE 14.2 km/h 22.2 km/h 79 % 0 mm
13:47 18.6 °C 14.9 °C 1001.2 hPa SSW 10.5 km/h 20.4 km/h 79 % 0 mm
13:52 18.8 °C 15.1 °C 1001.2 hPa SSW 10.1 km/h 14.8 km/h 79 % 0 mm
13:57 18.9 °C 15.2 °C 1001.2 hPa SSW 9.2 km/h 18.5 km/h 79 % 0 mm
14:02 19.2 °C 15.4 °C 1001.2 hPa SSW 11.6 km/h 29.6 km/h 79 % 0 mm
14:07 19.2 °C 15.3 °C 1001.2 hPa South 10.8 km/h 18.5 km/h 78 % 0 mm
14:12 19.2 °C 15.1 °C 1001.2 hPa SSE 10.1 km/h 16.7 km/h 77 % 0 mm
14:17 19.1 °C 15.1 °C 1000.9 hPa SE 13.5 km/h 22.2 km/h 78 % 0 mm
14:22 18.9 °C 15.2 °C 1000.9 hPa SSE 14.6 km/h 22.2 km/h 79 % 0 mm
14:27 18.8 °C 14.8 °C 1000.6 hPa South 13.5 km/h 29.6 km/h 78 % 0 mm
14:32 18.4 °C 14.9 °C 1000.6 hPa SSE 14.5 km/h 20.4 km/h 80 % 0 mm
14:37 18.3 °C 14.8 °C 1000.6 hPa South 13.2 km/h 20.4 km/h 80 % 0 mm
14:42 18.1 °C 14.8 °C 1000.2 hPa SSE 11.9 km/h 20.9 km/h 81 % 0 mm
14:47 18.1 °C 14.7 °C 1000.2 hPa South 8.7 km/h 14.8 km/h 81 % 0 mm
14:52 18.1 °C 14.7 °C 1000.2 hPa SSE 3.5 km/h 5.6 km/h 81 % 0 mm
14:58 18.2 °C 14.8 °C 999.9 hPa SSE 9.5 km/h 18.5 km/h 81 % 0 mm
15:03 18.2 °C 14.8 °C 999.9 hPa South 6 km/h 11.3 km/h 81 % 0 mm
15:08 18.2 °C 14.8 °C 999.9 hPa South 6.9 km/h 11.1 km/h 81 % 0 mm
15:13 18.2 °C 14.9 °C 999.5 hPa South 11.4 km/h 18.5 km/h 81 % 0 mm
15:18 18.2 °C 14.8 °C 999.5 hPa SSE 10.1 km/h 14.8 km/h 81 % 0 mm
15:23 18.2 °C 14.8 °C 999.2 hPa South 15.8 km/h 15.8 km/h 81 % 0 mm
15:28 18.2 °C 14.8 °C 999.2 hPa SSE 9.7 km/h 25.7 km/h 81 % 0 mm
15:33 18.1 °C 14.8 °C 998.9 hPa South 8.9 km/h 20.4 km/h 81 % 0 mm
15:38 18.1 °C 14.7 °C 998.9 hPa SSE 12.9 km/h 24.1 km/h 81 % 0 mm
15:43 18 °C 14.7 °C 998.9 hPa South 12.9 km/h 24.1 km/h 81 % 0 mm
15:48 18 °C 14.9 °C 998.5 hPa SSE 8 km/h 22.5 km/h 82 % 0 mm
15:53 17.9 °C 14.8 °C 998.5 hPa SSE 16.1 km/h 32.2 km/h 82 % 0 mm
15:58 17.6 °C 14.4 °C 998.2 hPa SSW 11.7 km/h 24.1 km/h 82 % 0 mm
16:03 17.2 °C 14.3 °C 997.9 hPa South 8.2 km/h 22.2 km/h 83 % 0 mm
16:08 17 °C 14.3 °C 997.9 hPa SSE 13.4 km/h 18.5 km/h 84 % 0 mm
16:13 16.7 °C 14.1 °C 997.5 hPa SE 11.1 km/h 20.4 km/h 85 % 0 mm
16:18 16.4 °C 14.1 °C 997.9 hPa ESE 11.4 km/h 18.5 km/h 86 % 0 mm
16:23 16.2 °C 14.1 °C 997.9 hPa SSE 6.6 km/h 16.7 km/h 87 % 0 mm
16:28 16.1 °C 13.9 °C 997.5 hPa SSE 4.5 km/h 7.4 km/h 87 % 0 mm
16:33 16 °C 13.8 °C 997.5 hPa South 6.8 km/h 11.1 km/h 87 % 0 mm
16:38 15.8 °C 13.8 °C 997.5 hPa South 16.7 km/h 27.8 km/h 88 % 0 mm
16:43 15.3 °C 13.7 °C 997.9 hPa South 8.7 km/h 24.1 km/h 90 % 0 mm
16:48 15.1 °C 13.7 °C 998.2 hPa South 11.9 km/h 25.9 km/h 91 % 0 mm
16:53 14.9 °C 13.4 °C 998.2 hPa SSE 3.4 km/h 8 km/h 91 % 0 mm
16:58 14.8 °C 13.3 °C 998.2 hPa South 5.1 km/h 11.1 km/h 91 % 0 mm
17:04 14.7 °C 13.4 °C 998.2 hPa SSW 6.4 km/h 11.3 km/h 92 % 0 mm
17:09 14.6 °C 13.3 °C 998.2 hPa South 4.7 km/h 11.1 km/h 92 % 0 mm
17:14 14.5 °C 13.2 °C 998.2 hPa SSE 9.2 km/h 16.7 km/h 92 % 0 mm
17:19 14.3 °C 13.2 °C 998.5 hPa SSW 7.9 km/h 13 km/h 93 % 0 mm
17:24 14.3 °C 13.2 °C 998.5 hPa SSE 5.1 km/h 14.8 km/h 93 % 0 mm
17:29 14.2 °C 13.1 °C 998.5 hPa South 5.8 km/h 9.3 km/h 93 % 0 mm
17:34 14.1 °C 12.9 °C 998.5 hPa South 3.5 km/h 6.4 km/h 93 % 0 mm
17:39 14 °C 12.9 °C 998.5 hPa South 8.4 km/h 9.3 km/h 93 % 0 mm
17:44 13.9 °C 12.8 °C 998.2 hPa SSW 10 km/h 17.7 km/h 93 % 0 mm
17:49 13.9 °C 12.8 °C 998.2 hPa South 8.7 km/h 14.8 km/h 93 % 0 mm
17:54 13.8 °C 12.9 °C 998.2 hPa SSE 3.5 km/h 13 km/h 94 % 0 mm
17:59 13.8 °C 12.8 °C 998.2 hPa South 10.1 km/h 18.5 km/h 94 % 0 mm
18:04 13.7 °C 12.7 °C 997.9 hPa South 9.3 km/h 20.4 km/h 94 % 0 mm
18:09 13.6 °C 12.7 °C 997.9 hPa South 4.8 km/h 11.1 km/h 94 % 0 mm
18:14 13.6 °C 12.7 °C 997.9 hPa South 9 km/h 18.5 km/h 94 % 0 mm
18:19 13.6 °C 12.8 °C 997.9 hPa SSE 5.6 km/h 11.1 km/h 95 % 0 mm
18:24 13.6 °C 12.8 °C 997.9 hPa South 5.8 km/h 9.3 km/h 95 % 0 mm
18:29 13.6 °C 12.8 °C 997.5 hPa SSE 5.3 km/h 14.8 km/h 95 % 0 mm
18:34 13.6 °C 12.8 °C 997.5 hPa SSE 9.7 km/h 14.8 km/h 95 % 0 mm
18:37 13.6 °C 12.8 °C 997.2 hPa South 2.7 km/h 13 km/h 95 % 0 mm
18:40 13.6 °C 12.8 °C 997.5 hPa South 9.2 km/h 13 km/h 95 % 0 mm
18:45 13.5 °C 12.7 °C 997.2 hPa SE 9.2 km/h 18.5 km/h 95 % 0 mm
18:50 13.5 °C 12.7 °C 997.2 hPa SSW 9.3 km/h 22.2 km/h 95 % 0 mm
18:55 13.5 °C 12.7 °C 996.8 hPa South 4.5 km/h 14.8 km/h 95 % 0 mm
19:00 13.5 °C 12.7 °C 997.2 hPa South 8.2 km/h 11.1 km/h 95 % 0 mm
19:05 13.4 °C 12.7 °C 997.5 hPa SSW 10.8 km/h 16.7 km/h 95 % 0 mm
19:10 13.4 °C 12.7 °C 997.9 hPa SSW 11.4 km/h 24.1 km/h 95 % 0 mm
19:15 13.4 °C 12.7 °C 998.2 hPa SW 11.7 km/h 18.5 km/h 95 % 0.76 mm
19:20 13.4 °C 12.7 °C 998.9 hPa SW 10.5 km/h 19.3 km/h 95 % 1.02 mm
19:25 13.3 °C 12.6 °C 998.2 hPa SW 5.1 km/h 14.8 km/h 95 % 1.27 mm
19:30 13.3 °C 12.6 °C 998.2 hPa SW 5.5 km/h 7.4 km/h 95 % 1.52 mm
19:35 13.3 °C 12.5 °C 998.2 hPa WSW 11.4 km/h 14.8 km/h 95 % 1.52 mm
19:40 13.2 °C 12.4 °C 998.2 hPa West 3.1 km/h 7.4 km/h 95 % 1.78 mm
19:45 13.2 °C 12.4 °C 998.5 hPa WSW 3.7 km/h 7.4 km/h 95 % 1.78 mm
19:50 13.2 °C 12.4 °C 998.5 hPa SW 5.1 km/h 5.6 km/h 95 % 2.03 mm
19:56 13.1 °C 12.3 °C 998.9 hPa West 2.9 km/h 9.3 km/h 95 % 2.03 mm
20:01 13.1 °C 12.3 °C 998.5 hPa WNW 8.7 km/h 12.9 km/h 95 % 2.03 mm
20:06 12.7 °C 11.8 °C 998.5 hPa WNW 13.7 km/h 20.9 km/h 94 % 2.29 mm
20:11 12.2 °C 10.9 °C 998.9 hPa WNW 8.2 km/h 18.5 km/h 92 % 2.29 mm
20:16 11.4 °C 9.8 °C 1000.2 hPa WNW 19.2 km/h 29 km/h 90 % 1.52 mm
20:21 10.7 °C 8.9 °C 1000.6 hPa WNW 15.3 km/h 20.4 km/h 89 % 1.52 mm
20:26 10.2 °C 8.6 °C 1000.6 hPa NNE 8.5 km/h 22.2 km/h 90 % 1.27 mm
20:31 9.8 °C 8.1 °C 1000.6 hPa NW 10.9 km/h 31.5 km/h 89 % 1.02 mm
20:36 9.6 °C 8 °C 1000.6 hPa NW 5.8 km/h 18.5 km/h 90 % 1.02 mm
20:41 9.3 °C 7.8 °C 1000.2 hPa NW 9.7 km/h 16.7 km/h 90 % 0.76 mm
20:46 9.1 °C 7.6 °C 1000.2 hPa West 10.6 km/h 20.4 km/h 90 % 1.02 mm
20:51 8.9 °C 7.2 °C 1000.2 hPa West 8 km/h 16.7 km/h 89 % 0.76 mm
20:56 8.7 °C 7 °C 999.9 hPa NW 7.4 km/h 9.3 km/h 89 % 0.76 mm
21:01 8.6 °C 7 °C 1000.2 hPa West 3.7 km/h 11.1 km/h 90 % 0.76 mm
21:06 8.4 °C 6.7 °C 1000.6 hPa WNW 7.1 km/h 16.7 km/h 89 % 0.51 mm
21:11 8.3 °C 6.6 °C 1000.9 hPa NW 7.4 km/h 13 km/h 89 % 0.51 mm
21:16 8.2 °C 6.7 °C 1000.6 hPa WNW 4 km/h 11.3 km/h 90 % 0.51 mm
21:21 8.2 °C 6.6 °C 1000.6 hPa NW 4.5 km/h 16.7 km/h 90 % 0.51 mm
21:26 8.1 °C 6.6 °C 1000.2 hPa WNW 5.6 km/h 9.3 km/h 90 % 0.51 mm
21:31 8.1 °C 6.7 °C 1000.9 hPa WNW 2.6 km/h 5.6 km/h 91 % 0.51 mm
21:36 8.1 °C 6.7 °C 1000.6 hPa WNW 2.6 km/h 5.6 km/h 91 % 0.51 mm
21:41 8.1 °C 6.7 °C 1000.2 hPa NW 2.6 km/h 5.6 km/h 91 % 0.51 mm
21:46 8.1 °C 6.7 °C 1000.2 hPa West 3.9 km/h 7.4 km/h 91 % 0.25 mm
21:51 8.1 °C 6.7 °C 999.9 hPa NW 3.1 km/h 9.3 km/h 91 % 0.25 mm
21:52 8.1 °C 6.7 °C 999.9 hPa NW 2.7 km/h 9.3 km/h 91 % 0.25 mm
21:57 8.1 °C 6.7 °C 1000.6 hPa WSW 7.7 km/h 9.3 km/h 91 % 0.25 mm
22:02 8.1 °C 6.7 °C 1000.9 hPa SW 6 km/h 11.3 km/h 91 % 0.25 mm
22:07 8 °C 6.6 °C 1000.6 hPa WSW 4.3 km/h 16.7 km/h 91 % 0.25 mm
22:12 7.9 °C 6.6 °C 1000.6 hPa WSW 7.7 km/h 13 km/h 91 % 0.25 mm
22:17 7.9 °C 6.5 °C 1000.9 hPa West 8.2 km/h 9.7 km/h 91 % 0.25 mm
22:22 7.8 °C 6.4 °C 1000.2 hPa SW 7.4 km/h 14.8 km/h 91 % 0 mm
22:27 7.8 °C 6.4 °C 999.9 hPa West 4.8 km/h 9.3 km/h 91 % 0 mm
22:32 7.7 °C 6.3 °C 1000.6 hPa WSW 7.9 km/h 11.1 km/h 91 % 0 mm
22:37 7.7 °C 6.3 °C 1000.6 hPa WNW 1.4 km/h 5.6 km/h 91 % 0 mm
22:42 7.6 °C 6.2 °C 1001.2 hPa WSW 4.3 km/h 7.4 km/h 91 % 0 mm
22:47 7.6 °C 6.2 °C 1001.2 hPa WNW 6.3 km/h 11.1 km/h 91 % 0 mm
22:52 7.6 °C 6.2 °C 1001.6 hPa West 6 km/h 9.3 km/h 91 % 0 mm
22:57 7.7 °C 6.3 °C 1001.2 hPa West 4.5 km/h 11.1 km/h 91 % 0 mm
23:02 7.7 °C 6.3 °C 1001.6 hPa WNW 7.7 km/h 9.3 km/h 91 % 0.25 mm
23:07 7.7 °C 6.3 °C 1001.6 hPa West 3.9 km/h 5.6 km/h 91 % 0.25 mm
23:12 7.7 °C 6.3 °C 1001.6 hPa NW 6.8 km/h 14.8 km/h 91 % 0.25 mm
23:17 7.7 °C 6.3 °C 1001.2 hPa NW 8.2 km/h 18.5 km/h 91 % 0.25 mm
23:23 7.6 °C 6.2 °C 1001.2 hPa NNW 7.6 km/h 13 km/h 91 % 0.25 mm
23:28 7.3 °C 5.8 °C 1001.6 hPa NNW 6.9 km/h 11.1 km/h 90 % 0.25 mm
23:33 7.2 °C 5.6 °C 1001.9 hPa North 2.9 km/h 9.7 km/h 90 % 0.25 mm
23:38 7.1 °C 5.7 °C 1002.3 hPa North 2.1 km/h 7.4 km/h 91 % 0.25 mm
23:43 6.9 °C 5.6 °C 1002.6 hPa WNW 5.8 km/h 9.3 km/h 91 % 0.25 mm
23:48 6.7 °C 5.1 °C 1001.6 hPa North 8.9 km/h 14.8 km/h 89 % 0.25 mm
23:53 6.5 °C 4.8 °C 1001.9 hPa NNW 8.5 km/h 9.7 km/h 89 % 0.25 mm
23:58 6.4 °C 4.6 °C 1001.9 hPa NW 0.8 km/h 16.7 km/h 88 % 0.25 mm
Crab Meadow Weather
Compliments of Weather Underground - 3 mb

Script developed by  Jim McMurry - jmcmurry@mwt.net Adapted for the template by  Wim van der Kuil - Leuven-Template.eu

Extremes: By average annual rainfall, the wettest place in the world is Mawslynram, in Meghalaya State, India with 467 1/2 inches per annum.